AZG501 UBBB-ESGG
Flight info
| Callsign | AZG501 |
|---|---|
| Flight time | 4h 50m |
| Altitude | 34000 |
| Route | AGDAM2D AGDAM M747 LUSAL N319 ADEKI N644 AGISO/N0487F360 N644 TETRO DCT SARPI UN37 TBN UM11 CRM UL746 ODERO DCT REVDA DCT KARIL DCT LENOV DCT LUSID DCT NILEN L617 ARQUS ARQUS1S |
| Aircraft | B77L/H-SDE1E2E3FGHIJ2J3J4J5M1RWXY/LB1D1 |
Departure
| Time | 2026-05-05 03:46 |
|---|---|
| Airport | Heydar Aliyev International Airport (UBBB) |
Arrival
| Time | 2026-05-05 08:36 |
|---|---|
| Airport | Göteborg Landvetter Airport (ESGG) |
| Time | Latitude | Longitude | Altitude | Speed | Heading |
|---|---|---|---|---|---|
| 2026-05-05 03:19 | 40.45910 | 50.05860 | -8 ft | 0 kts | 269° |
| 2026-05-05 03:33 | 40.45911 | 50.05885 | 21 ft | 4 kts | 269° |
| 2026-05-05 03:33 | 40.45911 | 50.05920 | 24 ft | 3 kts | 269° |
| 2026-05-05 03:33 | 40.45912 | 50.05945 | 24 ft | 4 kts | 242° |
| 2026-05-05 03:34 | 40.45925 | 50.05963 | 23 ft | 4 kts | 196° |
| 2026-05-05 03:34 | 40.45948 | 50.05967 | 23 ft | 4 kts | 179° |
| 2026-05-05 03:34 | 40.45962 | 50.05967 | 21 ft | 0 kts | 179° |
| 2026-05-05 03:38 | 40.45933 | 50.05967 | 19 ft | 9 kts | 179° |
| 2026-05-05 03:38 | 40.45862 | 50.05995 | 19 ft | 12 kts | 138° |
| 2026-05-05 03:39 | 40.45815 | 50.06090 | 19 ft | 13 kts | 147° |
| 2026-05-05 03:39 | 40.45732 | 50.06108 | 19 ft | 0 kts | 178° |
| 2026-05-05 03:42 | 40.45716 | 50.06110 | 19 ft | 6 kts | 174° |
| 2026-05-05 03:42 | 40.45695 | 50.06116 | 18 ft | 0 kts | 163° |
| 2026-05-05 03:42 | 40.45692 | 50.06118 | 18 ft | 1 kts | 161° |
| 2026-05-05 03:42 | 40.45679 | 50.06128 | 18 ft | 4 kts | 145° |
| 2026-05-05 03:43 | 40.45655 | 50.06233 | 16 ft | 21 kts | 88° |
| 2026-05-05 03:43 | 40.45733 | 50.06328 | 15 ft | 16 kts | 358° |
| 2026-05-05 03:43 | 40.45825 | 50.06322 | 15 ft | 0 kts | 358° |
| 2026-05-05 03:43 | 40.45826 | 50.06322 | 15 ft | 1 kts | 358° |
| 2026-05-05 03:44 | 40.45895 | 50.06320 | 14 ft | 23 kts | 359° |
| 2026-05-05 03:44 | 40.45923 | 50.06320 | 14 ft | 28 kts | 359° |
| 2026-05-05 03:44 | 40.46205 | 50.06317 | 16 ft | 52 kts | 359° |
| 2026-05-05 03:44 | 40.46639 | 50.06309 | 18 ft | 73 kts | 359° |
| 2026-05-05 03:45 | 40.47244 | 50.06301 | 14 ft | 116 kts | 359° |
| 2026-05-05 03:45 | 40.48347 | 50.06303 | 105 ft | 185 kts | 0° |
| 2026-05-05 03:45 | 40.49600 | 50.06296 | 241 ft | 176 kts | 359° |
| 2026-05-05 03:45 | 40.50784 | 50.06258 | 393 ft | 165 kts | 358° |
| 2026-05-05 03:46 | 40.51907 | 50.06146 | 427 ft | 161 kts | 349° |
| 2026-05-05 03:46 | 40.52992 | 50.05676 | 748 ft | 165 kts | 342° |
| 2026-05-05 03:46 | 40.54104 | 50.05265 | 1316 ft | 167 kts | 347° |
| 2026-05-05 03:46 | 40.55252 | 50.04919 | 1802 ft | 175 kts | 348° |
| 2026-05-05 03:47 | 40.56524 | 50.04564 | 2038 ft | 197 kts | 347° |
| 2026-05-05 03:47 | 40.57949 | 50.04458 | 2211 ft | 219 kts | 12° |
| 2026-05-05 03:47 | 40.59384 | 50.05346 | 2627 ft | 236 kts | 36° |
| 2026-05-05 03:47 | 40.60583 | 50.06929 | 3069 ft | 253 kts | 54° |
| 2026-05-05 03:48 | 40.61181 | 50.09127 | 3512 ft | 266 kts | 90° |
| 2026-05-05 03:48 | 40.60925 | 50.11572 | 4027 ft | 274 kts | 103° |
| 2026-05-05 03:48 | 40.60541 | 50.14068 | 4667 ft | 283 kts | 103° |
| 2026-05-05 03:48 | 40.60186 | 50.16649 | 5356 ft | 289 kts | 103° |
| 2026-05-05 03:49 | 40.59864 | 50.19281 | 6087 ft | 294 kts | 103° |
| 2026-05-05 03:49 | 40.59570 | 50.21933 | 6760 ft | 298 kts | 102° |
| 2026-05-05 03:49 | 40.59284 | 50.24655 | 7546 ft | 295 kts | 103° |
| 2026-05-05 03:49 | 40.59008 | 50.27305 | 7979 ft | 297 kts | 103° |
| 2026-05-05 03:50 | 40.58682 | 50.29996 | 7971 ft | 295 kts | 112° |
| 2026-05-05 03:50 | 40.57918 | 50.32444 | 8463 ft | 287 kts | 123° |
| 2026-05-05 03:50 | 40.57013 | 50.34765 | 9326 ft | 284 kts | 124° |
| 2026-05-05 03:50 | 40.56122 | 50.37076 | 10140 ft | 283 kts | 124° |
| 2026-05-05 03:51 | 40.55227 | 50.39442 | 10544 ft | 299 kts | 123° |
| 2026-05-05 03:51 | 40.54236 | 50.41964 | 10686 ft | 316 kts | 130° |
| 2026-05-05 03:51 | 40.52670 | 50.44026 | 10824 ft | 325 kts | 154° |
| 2026-05-05 03:51 | 40.50521 | 50.45040 | 11078 ft | 335 kts | 176° |
| 2026-05-05 03:52 | 40.48172 | 50.45140 | 11573 ft | 342 kts | 182° |
| 2026-05-05 03:52 | 40.45790 | 50.45107 | 12344 ft | 347 kts | 182° |
| 2026-05-05 03:52 | 40.43360 | 50.45070 | 13275 ft | 350 kts | 182° |
| 2026-05-05 03:52 | 40.40919 | 50.45043 | 14146 ft | 353 kts | 182° |
| 2026-05-05 03:53 | 40.38440 | 50.45029 | 14924 ft | 358 kts | 183° |
| 2026-05-05 03:53 | 40.35931 | 50.45025 | 15666 ft | 362 kts | 183° |
| 2026-05-05 03:53 | 40.33431 | 50.45025 | 16416 ft | 366 kts | 184° |
| 2026-05-05 03:53 | 40.30917 | 50.44669 | 16975 ft | 364 kts | 199° |
| 2026-05-05 03:54 | 40.28633 | 50.43231 | 17675 ft | 366 kts | 216° |
| 2026-05-05 03:54 | 40.26754 | 50.40998 | 18516 ft | 366 kts | 229° |
| 2026-05-05 03:54 | 40.25357 | 50.38206 | 19251 ft | 370 kts | 240° |
| 2026-05-05 03:54 | 40.24692 | 50.36145 | 19698 ft | 375 kts | 248° |
| 2026-05-05 03:55 | 40.24285 | 50.32721 | 20292 ft | 387 kts | 265° |
| 2026-05-05 03:55 | 40.24406 | 50.29161 | 20784 ft | 395 kts | 267° |
| 2026-05-05 03:55 | 40.24561 | 50.25547 | 21427 ft | 398 kts | 267° |
| 2026-05-05 03:55 | 40.24718 | 50.21934 | 22162 ft | 398 kts | 267° |
| 2026-05-05 03:56 | 40.24865 | 50.18308 | 22861 ft | 400 kts | 266° |
| 2026-05-05 03:56 | 40.25000 | 50.14664 | 23490 ft | 403 kts | 266° |
| 2026-05-05 03:56 | 40.25125 | 50.10981 | 24009 ft | 406 kts | 266° |
| 2026-05-05 03:56 | 40.25245 | 50.07276 | 24544 ft | 408 kts | 266° |
| 2026-05-05 03:57 | 40.25361 | 50.03551 | 25085 ft | 410 kts | 266° |
| 2026-05-05 03:57 | 40.25475 | 49.99810 | 25596 ft | 413 kts | 266° |
| 2026-05-05 03:57 | 40.25588 | 49.96036 | 26089 ft | 416 kts | 266° |
| 2026-05-05 03:57 | 40.25700 | 49.92237 | 26586 ft | 419 kts | 266° |
| 2026-05-05 03:58 | 40.25810 | 49.88470 | 27063 ft | 422 kts | 266° |
| 2026-05-05 03:58 | 40.25921 | 49.84623 | 27533 ft | 425 kts | 266° |
| 2026-05-05 03:58 | 40.26032 | 49.80740 | 28019 ft | 428 kts | 266° |
| 2026-05-05 03:58 | 40.26143 | 49.76845 | 28469 ft | 430 kts | 266° |
| 2026-05-05 03:59 | 40.26254 | 49.72893 | 28917 ft | 433 kts | 266° |
| 2026-05-05 03:59 | 40.26363 | 49.68941 | 29339 ft | 435 kts | 265° |
| 2026-05-05 03:59 | 40.26471 | 49.64973 | 29729 ft | 438 kts | 265° |
| 2026-05-05 03:59 | 40.26579 | 49.60977 | 30097 ft | 440 kts | 265° |
| 2026-05-05 04:00 | 40.26687 | 49.56952 | 30434 ft | 441 kts | 265° |
| 2026-05-05 04:00 | 40.26794 | 49.52954 | 30939 ft | 438 kts | 265° |
| 2026-05-05 04:00 | 40.26901 | 49.48983 | 31495 ft | 434 kts | 265° |
| 2026-05-05 04:00 | 40.27002 | 49.45048 | 31977 ft | 431 kts | 265° |
| 2026-05-05 04:01 | 40.27033 | 49.41135 | 32408 ft | 427 kts | 262° |
| 2026-05-05 04:01 | 40.26925 | 49.37265 | 32821 ft | 425 kts | 261° |
| 2026-05-05 04:01 | 40.26779 | 49.33409 | 33243 ft | 423 kts | 261° |
| 2026-05-05 04:01 | 40.26650 | 49.29564 | 33664 ft | 421 kts | 261° |
| 2026-05-05 04:02 | 40.26540 | 49.25777 | 33888 ft | 424 kts | 262° |
| 2026-05-05 04:02 | 40.26615 | 49.21877 | 33953 ft | 434 kts | 270° |
| 2026-05-05 04:02 | 40.27372 | 49.18006 | 33951 ft | 443 kts | 282° |
| 2026-05-05 04:02 | 40.28456 | 49.14234 | 33950 ft | 443 kts | 281° |
| 2026-05-05 04:03 | 40.30473 | 49.06644 | 33933 ft | 440 kts | 280° |
| 2026-05-05 04:03 | 40.32408 | 48.99048 | 33940 ft | 439 kts | 280° |
| 2026-05-05 04:04 | 40.34333 | 48.91453 | 33935 ft | 439 kts | 280° |
| 2026-05-05 04:04 | 40.36252 | 48.83858 | 33942 ft | 440 kts | 279° |
| 2026-05-05 04:05 | 40.38167 | 48.76274 | 33944 ft | 442 kts | 279° |
| 2026-05-05 04:05 | 40.40099 | 48.68597 | 33943 ft | 445 kts | 280° |
| 2026-05-05 04:06 | 40.42040 | 48.60864 | 33945 ft | 447 kts | 280° |
| 2026-05-05 04:06 | 40.43981 | 48.53104 | 33936 ft | 448 kts | 280° |
| 2026-05-05 04:07 | 40.45919 | 48.45337 | 33926 ft | 447 kts | 279° |
| 2026-05-05 04:07 | 40.47848 | 48.37574 | 33932 ft | 446 kts | 279° |
| 2026-05-05 04:08 | 40.49769 | 48.29821 | 33932 ft | 446 kts | 279° |
| 2026-05-05 04:08 | 40.51680 | 48.22079 | 33931 ft | 445 kts | 279° |
| 2026-05-05 04:09 | 40.53573 | 48.14388 | 33928 ft | 445 kts | 279° |
| 2026-05-05 04:09 | 40.55477 | 48.06655 | 33931 ft | 444 kts | 279° |
| 2026-05-05 04:10 | 40.57503 | 47.98937 | 33928 ft | 451 kts | 285° |
| 2026-05-05 04:10 | 40.60510 | 47.91591 | 33930 ft | 462 kts | 293° |
| 2026-05-05 04:11 | 40.64407 | 47.84745 | 33939 ft | 470 kts | 299° |
| 2026-05-05 04:11 | 40.68529 | 47.78054 | 33945 ft | 470 kts | 299° |
| 2026-05-05 04:12 | 40.72593 | 47.71381 | 33944 ft | 469 kts | 299° |
| 2026-05-05 04:12 | 40.76646 | 47.64643 | 33948 ft | 469 kts | 299° |
| 2026-05-05 04:13 | 40.80693 | 47.57885 | 33950 ft | 469 kts | 299° |
| 2026-05-05 04:13 | 40.84752 | 47.51102 | 33945 ft | 470 kts | 299° |
| 2026-05-05 04:14 | 40.88817 | 47.44293 | 33950 ft | 472 kts | 299° |
| 2026-05-05 04:14 | 40.92858 | 47.37507 | 33931 ft | 474 kts | 299° |
| 2026-05-05 04:15 | 40.96963 | 47.30600 | 33943 ft | 475 kts | 299° |
| 2026-05-05 04:15 | 41.01043 | 47.23722 | 33936 ft | 475 kts | 300° |
| 2026-05-05 04:16 | 41.05092 | 47.16878 | 33949 ft | 475 kts | 300° |
| 2026-05-05 04:16 | 41.09196 | 47.09923 | 33941 ft | 476 kts | 300° |
| 2026-05-05 04:17 | 41.13247 | 47.03044 | 33942 ft | 476 kts | 300° |
| 2026-05-05 04:17 | 41.17310 | 46.96130 | 33957 ft | 476 kts | 300° |
| 2026-05-05 04:18 | 41.21388 | 46.89173 | 33966 ft | 478 kts | 300° |
| 2026-05-05 04:18 | 41.25490 | 46.82161 | 33967 ft | 480 kts | 300° |
| 2026-05-05 04:19 | 41.28996 | 46.74751 | 33975 ft | 467 kts | 287° |
| 2026-05-05 04:19 | 41.30954 | 46.66642 | 33981 ft | 456 kts | 274° |
| 2026-05-05 04:20 | 41.32078 | 46.58329 | 33984 ft | 457 kts | 274° |
| 2026-05-05 04:20 | 41.33178 | 46.50042 | 33985 ft | 459 kts | 274° |
| 2026-05-05 04:21 | 41.34318 | 46.41659 | 33982 ft | 461 kts | 274° |
| 2026-05-05 04:21 | 41.35478 | 46.33240 | 33961 ft | 463 kts | 274° |
| 2026-05-05 04:22 | 41.36636 | 46.24812 | 33957 ft | 463 kts | 274° |
| 2026-05-05 04:22 | 41.37786 | 46.16392 | 33957 ft | 462 kts | 274° |
| 2026-05-05 04:23 | 41.38931 | 46.07950 | 33946 ft | 463 kts | 274° |
| 2026-05-05 04:23 | 41.40068 | 45.99510 | 33946 ft | 463 kts | 274° |
| 2026-05-05 04:24 | 41.41201 | 45.91059 | 33940 ft | 463 kts | 275° |
| 2026-05-05 04:25 | 41.42884 | 45.78413 | 33945 ft | 464 kts | 275° |
| 2026-05-05 04:25 | 41.44003 | 45.69931 | 33936 ft | 465 kts | 275° |
| 2026-05-05 04:26 | 41.45119 | 45.61435 | 33935 ft | 466 kts | 275° |
| 2026-05-05 04:26 | 41.46231 | 45.52915 | 33932 ft | 466 kts | 275° |
| 2026-05-05 04:27 | 41.47341 | 45.44369 | 33928 ft | 468 kts | 275° |
| 2026-05-05 04:27 | 41.48416 | 45.35868 | 33927 ft | 467 kts | 273° |
| 2026-05-05 04:28 | 41.49165 | 45.27270 | 33938 ft | 467 kts | 271° |
| 2026-05-05 04:28 | 41.49835 | 45.18656 | 33934 ft | 467 kts | 271° |
| 2026-05-05 04:29 | 41.50515 | 45.10019 | 33935 ft | 469 kts | 271° |
| 2026-05-05 04:29 | 41.51207 | 45.01364 | 33931 ft | 469 kts | 271° |
| 2026-05-05 04:30 | 41.51897 | 44.92720 | 33945 ft | 469 kts | 271° |
| 2026-05-05 04:30 | 41.52581 | 44.84056 | 33944 ft | 470 kts | 271° |
| 2026-05-05 04:31 | 41.53258 | 44.75379 | 33931 ft | 470 kts | 271° |
| 2026-05-05 04:31 | 41.53929 | 44.66708 | 33932 ft | 469 kts | 271° |
| 2026-05-05 04:32 | 41.54591 | 44.58040 | 33935 ft | 469 kts | 271° |
| 2026-05-05 04:32 | 41.55244 | 44.49423 | 33922 ft | 469 kts | 271° |
| 2026-05-05 04:33 | 41.55894 | 44.40752 | 33925 ft | 470 kts | 271° |
| 2026-05-05 04:33 | 41.56541 | 44.32029 | 33921 ft | 471 kts | 271° |
| 2026-05-05 04:34 | 41.57182 | 44.23317 | 33924 ft | 472 kts | 271° |
| 2026-05-05 04:34 | 41.57849 | 44.14627 | 33914 ft | 473 kts | 271° |
| 2026-05-05 04:35 | 41.58542 | 44.05866 | 33918 ft | 474 kts | 271° |
| 2026-05-05 04:35 | 41.59225 | 43.97088 | 33910 ft | 475 kts | 271° |
| 2026-05-05 04:36 | 41.59894 | 43.88358 | 33924 ft | 475 kts | 271° |
| 2026-05-05 04:36 | 41.60560 | 43.79559 | 33915 ft | 476 kts | 271° |
| 2026-05-05 04:37 | 41.61221 | 43.70735 | 33917 ft | 477 kts | 271° |
| 2026-05-05 04:37 | 41.61876 | 43.61896 | 33915 ft | 479 kts | 271° |
| 2026-05-05 04:38 | 41.62528 | 43.53022 | 33924 ft | 480 kts | 271° |
| 2026-05-05 04:38 | 41.63172 | 43.44175 | 33906 ft | 481 kts | 271° |
| 2026-05-05 04:39 | 41.63815 | 43.35257 | 33931 ft | 481 kts | 271° |
| 2026-05-05 04:39 | 41.64452 | 43.26337 | 33927 ft | 482 kts | 271° |
| 2026-05-05 04:40 | 41.65085 | 43.17397 | 33914 ft | 483 kts | 271° |
| 2026-05-05 04:40 | 41.65710 | 43.08460 | 33921 ft | 482 kts | 271° |
| 2026-05-05 04:41 | 41.66327 | 42.99528 | 33929 ft | 482 kts | 271° |
| 2026-05-05 04:41 | 41.66939 | 42.90590 | 33915 ft | 482 kts | 271° |
| 2026-05-05 04:42 | 41.67000 | 42.81740 | 33917 ft | 475 kts | 260° |
| 2026-05-05 04:42 | 41.66245 | 42.72969 | 33917 ft | 475 kts | 259° |
| 2026-05-05 04:43 | 41.65467 | 42.64195 | 33922 ft | 475 kts | 259° |
| 2026-05-05 04:43 | 41.64713 | 42.55408 | 33917 ft | 476 kts | 259° |
| 2026-05-05 04:44 | 41.63967 | 42.46600 | 33921 ft | 477 kts | 259° |
| 2026-05-05 04:44 | 41.63339 | 42.39204 | 33917 ft | 478 kts | 259° |
| 2026-05-05 04:45 | 41.62584 | 42.30386 | 33917 ft | 478 kts | 259° |
| 2026-05-05 04:45 | 41.61823 | 42.21617 | 33920 ft | 478 kts | 259° |
| 2026-05-05 04:46 | 41.61051 | 42.12778 | 33924 ft | 478 kts | 259° |
| 2026-05-05 04:46 | 41.60270 | 42.03944 | 33913 ft | 478 kts | 259° |
| 2026-05-05 04:47 | 41.59487 | 41.95137 | 33932 ft | 477 kts | 259° |
| 2026-05-05 04:47 | 41.58695 | 41.86329 | 33981 ft | 479 kts | 259° |
| 2026-05-05 04:47 | 41.58297 | 41.81906 | 34245 ft | 480 kts | 259° |
| 2026-05-05 04:48 | 41.57896 | 41.77492 | 34653 ft | 477 kts | 259° |
| 2026-05-05 04:48 | 41.57497 | 41.73113 | 35082 ft | 474 kts | 259° |
| 2026-05-05 04:48 | 41.57097 | 41.68754 | 35452 ft | 471 kts | 259° |
| 2026-05-05 04:48 | 41.56702 | 41.64464 | 35786 ft | 471 kts | 259° |
| 2026-05-05 04:49 | 41.56299 | 41.60108 | 35872 ft | 473 kts | 259° |
| 2026-05-05 04:49 | 41.55490 | 41.51389 | 35929 ft | 472 kts | 259° |
| 2026-05-05 04:50 | 41.54099 | 41.42914 | 35949 ft | 464 kts | 249° |
| 2026-05-05 04:50 | 41.51691 | 41.34992 | 35948 ft | 459 kts | 242° |
| 2026-05-05 04:51 | 41.49093 | 41.27201 | 35947 ft | 459 kts | 243° |
| 2026-05-05 04:51 | 41.46561 | 41.19434 | 35947 ft | 460 kts | 243° |
| 2026-05-05 04:52 | 41.44005 | 41.11619 | 35952 ft | 460 kts | 243° |
| 2026-05-05 04:52 | 41.41428 | 41.03795 | 35951 ft | 461 kts | 243° |
| 2026-05-05 04:53 | 41.38841 | 40.95974 | 35955 ft | 462 kts | 243° |
| 2026-05-05 04:53 | 41.36240 | 40.88125 | 35950 ft | 463 kts | 243° |
| 2026-05-05 04:54 | 41.33633 | 40.80274 | 35956 ft | 464 kts | 243° |
| 2026-05-05 04:54 | 41.31017 | 40.72420 | 35952 ft | 464 kts | 243° |
| 2026-05-05 04:55 | 41.28412 | 40.64619 | 35955 ft | 465 kts | 243° |
| 2026-05-05 04:55 | 41.25784 | 40.56769 | 35952 ft | 465 kts | 243° |
| 2026-05-05 04:56 | 41.23146 | 40.48913 | 35955 ft | 465 kts | 243° |
| 2026-05-05 04:56 | 41.20506 | 40.41073 | 35954 ft | 464 kts | 243° |
| 2026-05-05 04:57 | 41.17881 | 40.33298 | 35957 ft | 464 kts | 243° |
| 2026-05-05 04:57 | 41.15236 | 40.25476 | 35954 ft | 464 kts | 243° |
| 2026-05-05 04:58 | 41.12593 | 40.17682 | 35965 ft | 463 kts | 243° |
| 2026-05-05 04:58 | 41.09938 | 40.09897 | 35960 ft | 463 kts | 242° |
| 2026-05-05 04:59 | 41.07281 | 40.02130 | 35969 ft | 463 kts | 242° |
| 2026-05-05 04:59 | 41.04634 | 39.94407 | 35967 ft | 462 kts | 242° |
| 2026-05-05 05:00 | 41.01971 | 39.86655 | 35968 ft | 462 kts | 242° |
| 2026-05-05 05:00 | 41.00236 | 39.78430 | 35974 ft | 470 kts | 259° |
| 2026-05-05 05:01 | 41.00305 | 39.69719 | 35969 ft | 479 kts | 272° |
| 2026-05-05 05:01 | 41.01221 | 39.60963 | 35968 ft | 481 kts | 274° |
| 2026-05-05 05:02 | 41.02134 | 39.52195 | 35974 ft | 481 kts | 273° |
| 2026-05-05 05:02 | 41.02979 | 39.43410 | 35983 ft | 481 kts | 272° |
| 2026-05-05 05:03 | 41.03799 | 39.34603 | 35975 ft | 482 kts | 272° |
| 2026-05-05 05:03 | 41.04615 | 39.25775 | 35966 ft | 483 kts | 272° |
| 2026-05-05 05:04 | 41.05428 | 39.16947 | 35978 ft | 484 kts | 272° |
| 2026-05-05 05:04 | 41.06242 | 39.08082 | 35963 ft | 485 kts | 272° |
| 2026-05-05 05:05 | 41.07058 | 38.99263 | 35981 ft | 485 kts | 272° |
| 2026-05-05 05:05 | 41.07871 | 38.90402 | 35981 ft | 486 kts | 272° |
| 2026-05-05 05:06 | 41.08679 | 38.81496 | 35976 ft | 486 kts | 272° |
| 2026-05-05 05:06 | 41.09480 | 38.72605 | 35979 ft | 486 kts | 272° |
| 2026-05-05 05:07 | 41.10264 | 38.63691 | 35973 ft | 487 kts | 272° |
| 2026-05-05 05:07 | 41.11023 | 38.54768 | 35975 ft | 487 kts | 272° |
| 2026-05-05 05:08 | 41.11769 | 38.45835 | 35973 ft | 487 kts | 272° |
| 2026-05-05 05:08 | 41.12510 | 38.36893 | 35978 ft | 488 kts | 272° |
| 2026-05-05 05:09 | 41.13243 | 38.27998 | 35976 ft | 488 kts | 272° |
| 2026-05-05 05:09 | 41.13977 | 38.19026 | 35970 ft | 489 kts | 272° |
| 2026-05-05 05:10 | 41.14708 | 38.10061 | 35973 ft | 490 kts | 272° |
| 2026-05-05 05:10 | 41.15435 | 38.01054 | 35981 ft | 491 kts | 272° |
| 2026-05-05 05:11 | 41.16157 | 37.92029 | 35978 ft | 491 kts | 272° |
| 2026-05-05 05:11 | 41.16890 | 37.83001 | 36008 ft | 494 kts | 273° |
| 2026-05-05 05:12 | 41.17669 | 37.73950 | 35994 ft | 498 kts | 273° |
| 2026-05-05 05:12 | 41.18445 | 37.64816 | 36000 ft | 497 kts | 273° |
| 2026-05-05 05:13 | 41.19069 | 37.55713 | 36011 ft | 495 kts | 270° |
| 2026-05-05 05:13 | 41.19610 | 37.46559 | 35988 ft | 496 kts | 272° |
| 2026-05-05 05:14 | 41.20329 | 37.37450 | 35984 ft | 496 kts | 273° |
| 2026-05-05 05:14 | 41.21022 | 37.28322 | 35985 ft | 496 kts | 272° |
| 2026-05-05 05:15 | 41.21689 | 37.19204 | 35987 ft | 497 kts | 272° |
| 2026-05-05 05:15 | 41.22398 | 37.10072 | 35986 ft | 497 kts | 273° |
| 2026-05-05 05:16 | 41.23109 | 37.00979 | 35985 ft | 498 kts | 273° |
| 2026-05-05 05:16 | 41.23811 | 36.91808 | 35988 ft | 499 kts | 273° |
| 2026-05-05 05:17 | 41.24502 | 36.82636 | 35991 ft | 500 kts | 273° |
| 2026-05-05 05:17 | 41.25190 | 36.73415 | 35989 ft | 500 kts | 273° |
| 2026-05-05 05:18 | 41.25871 | 36.64206 | 35999 ft | 501 kts | 273° |
| 2026-05-05 05:18 | 41.26728 | 36.55063 | 35998 ft | 503 kts | 279° |
| 2026-05-05 05:19 | 41.28670 | 36.46094 | 36005 ft | 506 kts | 287° |
| 2026-05-05 05:19 | 41.30991 | 36.37242 | 35997 ft | 507 kts | 287° |
| 2026-05-05 05:20 | 41.33298 | 36.28370 | 36000 ft | 508 kts | 287° |
| 2026-05-05 05:20 | 41.35568 | 36.19451 | 35979 ft | 509 kts | 287° |
| 2026-05-05 05:21 | 41.37815 | 36.10529 | 35981 ft | 509 kts | 287° |
| 2026-05-05 05:21 | 41.40060 | 36.01574 | 35972 ft | 508 kts | 287° |
| 2026-05-05 05:22 | 41.42296 | 35.92633 | 35975 ft | 508 kts | 287° |
| 2026-05-05 05:22 | 41.44521 | 35.83704 | 35972 ft | 507 kts | 287° |
| 2026-05-05 05:23 | 41.46732 | 35.74798 | 35967 ft | 507 kts | 288° |
| 2026-05-05 05:23 | 41.48931 | 35.65909 | 35975 ft | 506 kts | 288° |
| 2026-05-05 05:24 | 41.51129 | 35.56988 | 35974 ft | 506 kts | 288° |
| 2026-05-05 05:24 | 41.53321 | 35.48059 | 35978 ft | 506 kts | 288° |
| 2026-05-05 05:25 | 41.55503 | 35.39134 | 35981 ft | 505 kts | 288° |
| 2026-05-05 05:25 | 41.57665 | 35.30257 | 35971 ft | 506 kts | 288° |
| 2026-05-05 05:26 | 41.59836 | 35.21312 | 35974 ft | 506 kts | 288° |
| 2026-05-05 05:26 | 41.61998 | 35.12367 | 35986 ft | 506 kts | 288° |
| 2026-05-05 05:27 | 41.64153 | 35.03415 | 35977 ft | 506 kts | 288° |
| 2026-05-05 05:27 | 41.67363 | 34.90018 | 35986 ft | 506 kts | 288° |
| 2026-05-05 05:28 | 41.69502 | 34.81050 | 35986 ft | 506 kts | 288° |
| 2026-05-05 05:28 | 41.71624 | 34.72110 | 35981 ft | 506 kts | 288° |
| 2026-05-05 05:29 | 41.73753 | 34.63116 | 35990 ft | 507 kts | 288° |
| 2026-05-05 05:29 | 41.75878 | 34.54099 | 35997 ft | 508 kts | 288° |
| 2026-05-05 05:30 | 41.77996 | 34.45067 | 35993 ft | 508 kts | 288° |
| 2026-05-05 05:30 | 41.80114 | 34.36007 | 36000 ft | 509 kts | 288° |
| 2026-05-05 05:31 | 41.82223 | 34.26945 | 35998 ft | 510 kts | 288° |
| 2026-05-05 05:31 | 41.84332 | 34.17850 | 35999 ft | 510 kts | 288° |
| 2026-05-05 05:32 | 41.86078 | 34.10291 | 35996 ft | 510 kts | 288° |
| 2026-05-05 05:32 | 41.88509 | 33.99722 | 35992 ft | 509 kts | 288° |
| 2026-05-05 05:33 | 41.90584 | 33.90659 | 35992 ft | 507 kts | 288° |
| 2026-05-05 05:33 | 41.92314 | 33.83079 | 35995 ft | 506 kts | 289° |
| 2026-05-05 05:34 | 41.94353 | 33.74111 | 35993 ft | 504 kts | 289° |
| 2026-05-05 05:34 | 41.96315 | 33.65078 | 35993 ft | 503 kts | 287° |
| 2026-05-05 05:35 | 41.98032 | 33.55968 | 36000 ft | 503 kts | 286° |
| 2026-05-05 05:35 | 41.99729 | 33.46859 | 35995 ft | 502 kts | 286° |
| 2026-05-05 05:36 | 42.01459 | 33.37757 | 36000 ft | 502 kts | 287° |
| 2026-05-05 05:36 | 42.03193 | 33.28669 | 35988 ft | 502 kts | 287° |
| 2026-05-05 05:37 | 42.04919 | 33.19563 | 35993 ft | 502 kts | 287° |
| 2026-05-05 05:37 | 42.06636 | 33.10460 | 35991 ft | 501 kts | 287° |
| 2026-05-05 05:38 | 42.08393 | 33.01442 | 35993 ft | 501 kts | 288° |
| 2026-05-05 05:38 | 42.10268 | 32.92407 | 35993 ft | 501 kts | 288° |
| 2026-05-05 05:39 | 42.12129 | 32.83370 | 35963 ft | 499 kts | 289° |
| 2026-05-05 05:39 | 42.13929 | 32.74488 | 35975 ft | 486 kts | 289° |
| 2026-05-05 05:40 | 42.15700 | 32.65724 | 35983 ft | 484 kts | 289° |
| 2026-05-05 05:40 | 42.17462 | 32.56958 | 35991 ft | 484 kts | 289° |
| 2026-05-05 05:41 | 42.19214 | 32.48184 | 35990 ft | 485 kts | 289° |
| 2026-05-05 05:41 | 42.20961 | 32.39399 | 35991 ft | 485 kts | 289° |
| 2026-05-05 05:42 | 42.22696 | 32.30642 | 35989 ft | 486 kts | 289° |
| 2026-05-05 05:42 | 42.24434 | 32.21832 | 35983 ft | 487 kts | 289° |
| 2026-05-05 05:43 | 42.26162 | 32.12999 | 35989 ft | 487 kts | 288° |
| 2026-05-05 05:43 | 42.27889 | 32.04149 | 35989 ft | 487 kts | 288° |
| 2026-05-05 05:44 | 42.29615 | 31.95305 | 35988 ft | 486 kts | 288° |
| 2026-05-05 05:44 | 42.31334 | 31.86463 | 35990 ft | 486 kts | 288° |
| 2026-05-05 05:45 | 42.33044 | 31.77623 | 35985 ft | 486 kts | 288° |
| 2026-05-05 05:45 | 42.34733 | 31.68844 | 35988 ft | 485 kts | 288° |
| 2026-05-05 05:46 | 42.36425 | 31.60015 | 35987 ft | 485 kts | 288° |
| 2026-05-05 05:46 | 42.38111 | 31.51173 | 35993 ft | 485 kts | 288° |
| 2026-05-05 05:47 | 42.39789 | 31.42337 | 35993 ft | 485 kts | 288° |
| 2026-05-05 05:47 | 42.41459 | 31.33497 | 35996 ft | 485 kts | 288° |
| 2026-05-05 05:48 | 42.43123 | 31.24651 | 36000 ft | 485 kts | 287° |
| 2026-05-05 05:48 | 42.44772 | 31.15851 | 36002 ft | 485 kts | 287° |
| 2026-05-05 05:49 | 42.46422 | 31.06994 | 36008 ft | 485 kts | 287° |
| 2026-05-05 05:49 | 42.48062 | 30.98133 | 36005 ft | 485 kts | 287° |
| 2026-05-05 05:50 | 42.49697 | 30.89263 | 36005 ft | 485 kts | 287° |
| 2026-05-05 05:50 | 42.51325 | 30.80385 | 36007 ft | 485 kts | 287° |
| 2026-05-05 05:51 | 42.52943 | 30.71526 | 36010 ft | 484 kts | 287° |
| 2026-05-05 05:51 | 42.54555 | 30.62652 | 36021 ft | 484 kts | 286° |
| 2026-05-05 05:52 | 42.56157 | 30.53794 | 36024 ft | 483 kts | 286° |
| 2026-05-05 05:52 | 42.57751 | 30.44939 | 36029 ft | 483 kts | 286° |
| 2026-05-05 05:53 | 42.59337 | 30.36094 | 36031 ft | 482 kts | 286° |
| 2026-05-05 05:53 | 42.61603 | 30.27713 | 36027 ft | 474 kts | 305° |
| 2026-05-05 05:54 | 42.63596 | 30.24186 | 36032 ft | 470 kts | 316° |
| 2026-05-05 05:54 | 42.66042 | 30.21276 | 36036 ft | 465 kts | 326° |
| 2026-05-05 05:54 | 42.71335 | 30.16214 | 36037 ft | 466 kts | 327° |
| 2026-05-05 05:55 | 42.76665 | 30.11118 | 36044 ft | 468 kts | 326° |
| 2026-05-05 05:55 | 42.81965 | 30.05957 | 36045 ft | 469 kts | 326° |
| 2026-05-05 05:56 | 42.87266 | 30.00740 | 36048 ft | 470 kts | 326° |
| 2026-05-05 05:56 | 42.92568 | 29.95502 | 36049 ft | 471 kts | 325° |
| 2026-05-05 05:57 | 42.97873 | 29.90250 | 36049 ft | 471 kts | 325° |
| 2026-05-05 05:57 | 43.03145 | 29.85024 | 36051 ft | 471 kts | 325° |
| 2026-05-05 05:58 | 43.08441 | 29.79761 | 36051 ft | 470 kts | 325° |
| 2026-05-05 05:58 | 43.13738 | 29.74487 | 36057 ft | 470 kts | 325° |
| 2026-05-05 05:59 | 43.19025 | 29.69212 | 36055 ft | 470 kts | 325° |
| 2026-05-05 05:59 | 43.24307 | 29.63929 | 36060 ft | 470 kts | 325° |
| 2026-05-05 06:00 | 43.29585 | 29.58640 | 36058 ft | 470 kts | 325° |
| 2026-05-05 06:00 | 43.34833 | 29.53368 | 36058 ft | 470 kts | 324° |
| 2026-05-05 06:01 | 43.40115 | 29.48051 | 36060 ft | 470 kts | 324° |
| 2026-05-05 06:01 | 43.45391 | 29.42728 | 36065 ft | 470 kts | 324° |
| 2026-05-05 06:02 | 43.50668 | 29.37392 | 36064 ft | 471 kts | 324° |
| 2026-05-05 06:02 | 43.55948 | 29.32041 | 36067 ft | 471 kts | 324° |
| 2026-05-05 06:03 | 43.61227 | 29.26679 | 36065 ft | 472 kts | 324° |
| 2026-05-05 06:03 | 43.66516 | 29.21294 | 36070 ft | 472 kts | 324° |
| 2026-05-05 06:04 | 43.71773 | 29.15917 | 36075 ft | 473 kts | 323° |
| 2026-05-05 06:04 | 43.76610 | 29.09735 | 36077 ft | 474 kts | 314° |
| 2026-05-05 06:05 | 43.81108 | 29.03049 | 36075 ft | 475 kts | 313° |
| 2026-05-05 06:05 | 43.85607 | 28.96320 | 36074 ft | 476 kts | 314° |
| 2026-05-05 06:06 | 43.90124 | 28.89605 | 36074 ft | 476 kts | 314° |
| 2026-05-05 06:06 | 43.94658 | 28.82886 | 36068 ft | 477 kts | 314° |
| 2026-05-05 06:07 | 43.99188 | 28.76165 | 36064 ft | 477 kts | 314° |
| 2026-05-05 06:07 | 44.03691 | 28.69465 | 36062 ft | 477 kts | 314° |
| 2026-05-05 06:08 | 44.08224 | 28.62703 | 36064 ft | 478 kts | 314° |
| 2026-05-05 06:08 | 44.12757 | 28.55925 | 36062 ft | 478 kts | 314° |
| 2026-05-05 06:09 | 44.17286 | 28.49136 | 36068 ft | 479 kts | 314° |
| 2026-05-05 06:09 | 44.21819 | 28.42323 | 36067 ft | 479 kts | 314° |
| 2026-05-05 06:10 | 44.26346 | 28.35503 | 36070 ft | 479 kts | 314° |
| 2026-05-05 06:10 | 44.30843 | 28.28713 | 36069 ft | 479 kts | 314° |
| 2026-05-05 06:11 | 44.35368 | 28.21863 | 36065 ft | 479 kts | 314° |
| 2026-05-05 06:11 | 44.39890 | 28.15003 | 36061 ft | 479 kts | 314° |
| 2026-05-05 06:12 | 44.44405 | 28.08134 | 36059 ft | 479 kts | 314° |
| 2026-05-05 06:12 | 44.48913 | 28.01260 | 36054 ft | 479 kts | 314° |
| 2026-05-05 06:13 | 44.53418 | 27.94372 | 36057 ft | 479 kts | 314° |
| 2026-05-05 06:13 | 44.57912 | 27.87486 | 36058 ft | 478 kts | 314° |
| 2026-05-05 06:14 | 44.62399 | 27.80593 | 36061 ft | 478 kts | 314° |
| 2026-05-05 06:14 | 44.66874 | 27.73701 | 36060 ft | 477 kts | 314° |
| 2026-05-05 06:15 | 44.71338 | 27.66809 | 36062 ft | 477 kts | 314° |
| 2026-05-05 06:15 | 44.75797 | 27.59908 | 36068 ft | 476 kts | 314° |
| 2026-05-05 06:16 | 44.80218 | 27.53050 | 36064 ft | 476 kts | 314° |
| 2026-05-05 06:16 | 44.84657 | 27.46145 | 36063 ft | 475 kts | 314° |
| 2026-05-05 06:17 | 44.89086 | 27.39240 | 36063 ft | 475 kts | 314° |
| 2026-05-05 06:17 | 44.93514 | 27.32318 | 36067 ft | 474 kts | 314° |
| 2026-05-05 06:18 | 44.97926 | 27.25404 | 36064 ft | 474 kts | 314° |
| 2026-05-05 06:18 | 45.02339 | 27.18473 | 36064 ft | 474 kts | 314° |
| 2026-05-05 06:19 | 45.06719 | 27.11576 | 36060 ft | 474 kts | 314° |
| 2026-05-05 06:19 | 45.11116 | 27.04634 | 36065 ft | 474 kts | 314° |
| 2026-05-05 06:20 | 45.15513 | 26.97675 | 36055 ft | 473 kts | 314° |
| 2026-05-05 06:20 | 45.19898 | 26.90719 | 36058 ft | 473 kts | 314° |
| 2026-05-05 06:21 | 45.24277 | 26.83753 | 36050 ft | 473 kts | 314° |
| 2026-05-05 06:21 | 45.28657 | 26.76770 | 36055 ft | 473 kts | 313° |
| 2026-05-05 06:22 | 45.33024 | 26.69787 | 36055 ft | 473 kts | 313° |
| 2026-05-05 06:22 | 45.36648 | 26.63982 | 36058 ft | 473 kts | 313° |
| 2026-05-05 06:23 | 45.41019 | 26.56962 | 36052 ft | 473 kts | 313° |
| 2026-05-05 06:23 | 45.45386 | 26.49930 | 36053 ft | 473 kts | 313° |
| 2026-05-05 06:24 | 45.49737 | 26.42908 | 36053 ft | 472 kts | 313° |
| 2026-05-05 06:24 | 45.54076 | 26.35885 | 36067 ft | 472 kts | 313° |
| 2026-05-05 06:25 | 45.58413 | 26.28850 | 36068 ft | 472 kts | 313° |
| 2026-05-05 06:25 | 45.62718 | 26.21847 | 36072 ft | 472 kts | 313° |
| 2026-05-05 06:26 | 45.67046 | 26.14791 | 36101 ft | 472 kts | 313° |
| 2026-05-05 06:26 | 45.71371 | 26.07723 | 36081 ft | 472 kts | 313° |
| 2026-05-05 06:27 | 45.77858 | 25.97082 | 36089 ft | 472 kts | 313° |
| 2026-05-05 06:28 | 45.82172 | 25.89985 | 36095 ft | 472 kts | 313° |
| 2026-05-05 06:28 | 45.86483 | 25.82874 | 36110 ft | 472 kts | 313° |
| 2026-05-05 06:29 | 45.90790 | 25.75750 | 36113 ft | 472 kts | 313° |
| 2026-05-05 06:29 | 45.95092 | 25.68617 | 36110 ft | 472 kts | 313° |
| 2026-05-05 06:30 | 45.99393 | 25.61471 | 36101 ft | 473 kts | 313° |
| 2026-05-05 06:30 | 46.03662 | 25.54354 | 36099 ft | 473 kts | 313° |
| 2026-05-05 06:31 | 46.07960 | 25.47172 | 36097 ft | 473 kts | 313° |
| 2026-05-05 06:31 | 46.12248 | 25.39988 | 36091 ft | 473 kts | 313° |
| 2026-05-05 06:32 | 46.16534 | 25.32790 | 36090 ft | 473 kts | 313° |
| 2026-05-05 06:32 | 46.20813 | 25.25584 | 36091 ft | 473 kts | 313° |
| 2026-05-05 06:33 | 46.25090 | 25.18363 | 36091 ft | 473 kts | 313° |
| 2026-05-05 06:33 | 46.29359 | 25.11136 | 36083 ft | 472 kts | 312° |
| 2026-05-05 06:34 | 46.33620 | 25.03903 | 36087 ft | 472 kts | 312° |
| 2026-05-05 06:34 | 46.37875 | 24.96663 | 36086 ft | 472 kts | 312° |
| 2026-05-05 06:35 | 46.42098 | 24.89457 | 36087 ft | 471 kts | 312° |
| 2026-05-05 06:35 | 46.46336 | 24.82206 | 36092 ft | 471 kts | 312° |
| 2026-05-05 06:36 | 46.50571 | 24.74941 | 36093 ft | 471 kts | 312° |
| 2026-05-05 06:36 | 46.54796 | 24.67674 | 36095 ft | 471 kts | 312° |
| 2026-05-05 06:37 | 46.59018 | 24.60393 | 36097 ft | 471 kts | 312° |
| 2026-05-05 06:37 | 46.63241 | 24.53093 | 36097 ft | 470 kts | 312° |
| 2026-05-05 06:38 | 46.67447 | 24.45801 | 36098 ft | 470 kts | 312° |
| 2026-05-05 06:38 | 46.71649 | 24.38496 | 36093 ft | 470 kts | 312° |
| 2026-05-05 06:39 | 46.75814 | 24.31238 | 36089 ft | 469 kts | 312° |
| 2026-05-05 06:39 | 46.80000 | 24.23923 | 36085 ft | 469 kts | 312° |
| 2026-05-05 06:40 | 46.84180 | 24.16599 | 36083 ft | 469 kts | 311° |
| 2026-05-05 06:40 | 46.88352 | 24.09270 | 36077 ft | 469 kts | 311° |
| 2026-05-05 06:41 | 46.92517 | 24.01934 | 36081 ft | 468 kts | 311° |
| 2026-05-05 06:41 | 46.96671 | 23.94595 | 36087 ft | 468 kts | 311° |
| 2026-05-05 06:42 | 47.00819 | 23.87247 | 36075 ft | 468 kts | 311° |
| 2026-05-05 06:42 | 47.04933 | 23.79944 | 36083 ft | 467 kts | 311° |
| 2026-05-05 06:43 | 47.09059 | 23.72598 | 36077 ft | 467 kts | 311° |
| 2026-05-05 06:43 | 47.13183 | 23.65234 | 36077 ft | 467 kts | 311° |
| 2026-05-05 06:44 | 47.17296 | 23.57870 | 36076 ft | 467 kts | 311° |
| 2026-05-05 06:44 | 47.21410 | 23.50486 | 36071 ft | 467 kts | 311° |
| 2026-05-05 06:45 | 47.25528 | 23.43076 | 36071 ft | 467 kts | 311° |
| 2026-05-05 06:45 | 47.29636 | 23.35661 | 36075 ft | 467 kts | 310° |
| 2026-05-05 06:46 | 47.33737 | 23.28240 | 36070 ft | 467 kts | 310° |
| 2026-05-05 06:46 | 47.37814 | 23.20843 | 36069 ft | 468 kts | 310° |
| 2026-05-05 06:47 | 47.41917 | 23.13378 | 36065 ft | 468 kts | 310° |
| 2026-05-05 06:47 | 47.46018 | 23.05893 | 36066 ft | 468 kts | 310° |
| 2026-05-05 06:48 | 47.50122 | 22.98385 | 36069 ft | 469 kts | 310° |
| 2026-05-05 06:48 | 47.54212 | 22.90881 | 36064 ft | 469 kts | 310° |
| 2026-05-05 06:49 | 47.58300 | 22.83359 | 36065 ft | 469 kts | 310° |
| 2026-05-05 06:49 | 47.62382 | 22.75829 | 36065 ft | 469 kts | 309° |
| 2026-05-05 06:50 | 47.66462 | 22.68280 | 36064 ft | 468 kts | 309° |
| 2026-05-05 06:50 | 47.70529 | 22.60734 | 36057 ft | 468 kts | 309° |
| 2026-05-05 06:51 | 47.74580 | 22.53200 | 36069 ft | 467 kts | 309° |
| 2026-05-05 06:51 | 47.78850 | 22.45989 | 36073 ft | 466 kts | 317° |
| 2026-05-05 06:52 | 47.83924 | 22.40012 | 36042 ft | 465 kts | 328° |
| 2026-05-05 06:52 | 47.89459 | 22.35013 | 36046 ft | 465 kts | 329° |
| 2026-05-05 06:53 | 47.95031 | 22.30098 | 36063 ft | 465 kts | 329° |
| 2026-05-05 06:53 | 48.00581 | 22.25143 | 36066 ft | 465 kts | 329° |
| 2026-05-05 06:54 | 48.06123 | 22.20137 | 36044 ft | 465 kts | 329° |
| 2026-05-05 06:54 | 48.11661 | 22.15109 | 36065 ft | 465 kts | 328° |
| 2026-05-05 06:55 | 48.17166 | 22.10097 | 36061 ft | 466 kts | 328° |
| 2026-05-05 06:55 | 48.22700 | 22.05048 | 36061 ft | 466 kts | 328° |
| 2026-05-05 06:56 | 48.28229 | 21.99993 | 36064 ft | 466 kts | 328° |
| 2026-05-05 06:56 | 48.33775 | 21.94907 | 36044 ft | 466 kts | 328° |
| 2026-05-05 06:57 | 48.39301 | 21.89828 | 36044 ft | 466 kts | 328° |
| 2026-05-05 06:57 | 48.44837 | 21.84725 | 36065 ft | 466 kts | 328° |
| 2026-05-05 06:58 | 48.50332 | 21.79649 | 36063 ft | 466 kts | 328° |
| 2026-05-05 06:58 | 48.55841 | 21.74545 | 36040 ft | 466 kts | 328° |
| 2026-05-05 06:59 | 48.61365 | 21.69416 | 36061 ft | 466 kts | 328° |
| 2026-05-05 06:59 | 48.66885 | 21.64276 | 36055 ft | 466 kts | 328° |
| 2026-05-05 07:00 | 48.72397 | 21.59129 | 36051 ft | 466 kts | 328° |
| 2026-05-05 07:00 | 48.77884 | 21.53994 | 36048 ft | 466 kts | 328° |
| 2026-05-05 07:01 | 48.83402 | 21.48814 | 36055 ft | 467 kts | 328° |
| 2026-05-05 07:01 | 48.88925 | 21.43617 | 36032 ft | 467 kts | 327° |
| 2026-05-05 07:02 | 48.94451 | 21.38404 | 36028 ft | 467 kts | 327° |
| 2026-05-05 07:02 | 48.99972 | 21.33180 | 36021 ft | 467 kts | 327° |
| 2026-05-05 07:03 | 49.05492 | 21.27946 | 36040 ft | 467 kts | 327° |
| 2026-05-05 07:03 | 49.11004 | 21.22705 | 36019 ft | 467 kts | 327° |
| 2026-05-05 07:04 | 49.16508 | 21.17456 | 36011 ft | 466 kts | 327° |
| 2026-05-05 07:04 | 49.21986 | 21.12219 | 36023 ft | 465 kts | 327° |
| 2026-05-05 07:05 | 49.27486 | 21.06945 | 35996 ft | 465 kts | 327° |
| 2026-05-05 07:05 | 49.32920 | 21.01723 | 35997 ft | 465 kts | 327° |
| 2026-05-05 07:06 | 49.38518 | 20.96561 | 35993 ft | 465 kts | 329° |
| 2026-05-05 07:06 | 49.44142 | 20.91643 | 35986 ft | 465 kts | 329° |
| 2026-05-05 07:07 | 49.49763 | 20.86714 | 35980 ft | 465 kts | 329° |
| 2026-05-05 07:07 | 49.55362 | 20.81747 | 35975 ft | 466 kts | 328° |
| 2026-05-05 07:08 | 49.60942 | 20.76761 | 35976 ft | 467 kts | 328° |
| 2026-05-05 07:08 | 49.66572 | 20.71711 | 35969 ft | 468 kts | 328° |
| 2026-05-05 07:09 | 49.72212 | 20.66641 | 35967 ft | 469 kts | 328° |
| 2026-05-05 07:09 | 49.77853 | 20.61558 | 35963 ft | 469 kts | 328° |
| 2026-05-05 07:10 | 49.83496 | 20.56461 | 35960 ft | 469 kts | 328° |
| 2026-05-05 07:10 | 49.89131 | 20.51355 | 35953 ft | 469 kts | 328° |
| 2026-05-05 07:11 | 49.93810 | 20.47104 | 35954 ft | 469 kts | 328° |
| 2026-05-05 07:11 | 49.99436 | 20.41981 | 35949 ft | 469 kts | 328° |
| 2026-05-05 07:12 | 50.05059 | 20.36845 | 35945 ft | 468 kts | 327° |
| 2026-05-05 07:12 | 50.10669 | 20.31711 | 35946 ft | 468 kts | 327° |
| 2026-05-05 07:13 | 50.16277 | 20.26561 | 35943 ft | 468 kts | 327° |
| 2026-05-05 07:13 | 50.21886 | 20.21397 | 35940 ft | 468 kts | 327° |
| 2026-05-05 07:14 | 50.27500 | 20.16215 | 35940 ft | 468 kts | 327° |
| 2026-05-05 07:14 | 50.33111 | 20.11020 | 35938 ft | 469 kts | 327° |
| 2026-05-05 07:15 | 50.38722 | 20.05811 | 35934 ft | 469 kts | 327° |
| 2026-05-05 07:15 | 50.44338 | 20.00583 | 35930 ft | 469 kts | 327° |
| 2026-05-05 07:16 | 50.49950 | 19.95344 | 35928 ft | 470 kts | 327° |
| 2026-05-05 07:16 | 50.55563 | 19.90090 | 35922 ft | 470 kts | 327° |
| 2026-05-05 07:17 | 50.61181 | 19.84815 | 35910 ft | 470 kts | 326° |
| 2026-05-05 07:17 | 50.66754 | 19.79568 | 35912 ft | 470 kts | 326° |
| 2026-05-05 07:18 | 50.72367 | 19.74270 | 35909 ft | 470 kts | 326° |
| 2026-05-05 07:18 | 50.77985 | 19.68952 | 35907 ft | 471 kts | 326° |
| 2026-05-05 07:19 | 50.83598 | 19.63622 | 35905 ft | 471 kts | 326° |
| 2026-05-05 07:19 | 50.89222 | 19.58267 | 35899 ft | 472 kts | 326° |
| 2026-05-05 07:20 | 50.94846 | 19.52897 | 35901 ft | 472 kts | 326° |
| 2026-05-05 07:20 | 51.00475 | 19.47507 | 35893 ft | 472 kts | 326° |
| 2026-05-05 07:21 | 51.06099 | 19.42106 | 35900 ft | 472 kts | 326° |
| 2026-05-05 07:21 | 51.11721 | 19.36692 | 35896 ft | 472 kts | 326° |
| 2026-05-05 07:22 | 51.17340 | 19.31266 | 35895 ft | 472 kts | 326° |
| 2026-05-05 07:22 | 51.22920 | 19.25860 | 35893 ft | 472 kts | 326° |
| 2026-05-05 07:23 | 51.28523 | 19.20417 | 35897 ft | 472 kts | 325° |
| 2026-05-05 07:23 | 51.34136 | 19.14948 | 35894 ft | 472 kts | 325° |
| 2026-05-05 07:24 | 51.39746 | 19.09468 | 35897 ft | 472 kts | 325° |
| 2026-05-05 07:24 | 51.45349 | 19.03977 | 35902 ft | 472 kts | 325° |
| 2026-05-05 07:25 | 51.50954 | 18.98467 | 35902 ft | 472 kts | 325° |
| 2026-05-05 07:25 | 51.56551 | 18.92950 | 35890 ft | 472 kts | 325° |
| 2026-05-05 07:26 | 51.62150 | 18.87416 | 35892 ft | 472 kts | 325° |
| 2026-05-05 07:26 | 51.67748 | 18.81866 | 35895 ft | 472 kts | 325° |
| 2026-05-05 07:27 | 51.73337 | 18.76308 | 35894 ft | 472 kts | 325° |
| 2026-05-05 07:27 | 51.78924 | 18.70737 | 35899 ft | 472 kts | 325° |
| 2026-05-05 07:28 | 51.84508 | 18.65152 | 35898 ft | 472 kts | 324° |
| 2026-05-05 07:28 | 51.90079 | 18.59562 | 35900 ft | 471 kts | 324° |
| 2026-05-05 07:29 | 51.95651 | 18.53956 | 35898 ft | 471 kts | 324° |
| 2026-05-05 07:29 | 52.01218 | 18.48338 | 35902 ft | 471 kts | 324° |
| 2026-05-05 07:30 | 52.06779 | 18.42709 | 35900 ft | 471 kts | 324° |
| 2026-05-05 07:30 | 52.15117 | 18.34238 | 35899 ft | 471 kts | 324° |
| 2026-05-05 07:31 | 52.20672 | 18.28575 | 35902 ft | 471 kts | 324° |
| 2026-05-05 07:31 | 52.26195 | 18.22925 | 35905 ft | 472 kts | 324° |
| 2026-05-05 07:32 | 52.31791 | 18.17184 | 35908 ft | 472 kts | 324° |
| 2026-05-05 07:32 | 52.37350 | 18.11464 | 35907 ft | 472 kts | 324° |
| 2026-05-05 07:33 | 52.42915 | 18.05721 | 35909 ft | 473 kts | 323° |
| 2026-05-05 07:33 | 52.48434 | 18.00009 | 35913 ft | 473 kts | 323° |
| 2026-05-05 07:34 | 52.54007 | 17.94221 | 35917 ft | 473 kts | 323° |
| 2026-05-05 07:34 | 52.59565 | 17.88433 | 35918 ft | 473 kts | 323° |
| 2026-05-05 07:35 | 52.65127 | 17.82623 | 35920 ft | 473 kts | 323° |
| 2026-05-05 07:35 | 52.70680 | 17.76806 | 35920 ft | 472 kts | 323° |
| 2026-05-05 07:36 | 52.76217 | 17.70986 | 35920 ft | 472 kts | 323° |
| 2026-05-05 07:36 | 52.81756 | 17.65146 | 35922 ft | 472 kts | 323° |
| 2026-05-05 07:37 | 52.87288 | 17.59296 | 35924 ft | 472 kts | 323° |
| 2026-05-05 07:37 | 52.92823 | 17.53423 | 35921 ft | 473 kts | 323° |
| 2026-05-05 07:38 | 52.98355 | 17.47538 | 35924 ft | 473 kts | 322° |
| 2026-05-05 07:38 | 53.03897 | 17.41623 | 35925 ft | 473 kts | 322° |
| 2026-05-05 07:39 | 53.09436 | 17.35692 | 35927 ft | 474 kts | 322° |
| 2026-05-05 07:39 | 53.14937 | 17.29784 | 35935 ft | 474 kts | 322° |
| 2026-05-05 07:40 | 53.20477 | 17.23816 | 35915 ft | 474 kts | 322° |
| 2026-05-05 07:40 | 53.26030 | 17.17816 | 35923 ft | 474 kts | 322° |
| 2026-05-05 07:41 | 53.31552 | 17.11830 | 35930 ft | 473 kts | 322° |
| 2026-05-05 07:41 | 53.37070 | 17.05829 | 35932 ft | 473 kts | 322° |
| 2026-05-05 07:42 | 53.42572 | 16.99827 | 35930 ft | 472 kts | 322° |
| 2026-05-05 07:42 | 53.47786 | 16.94122 | 35937 ft | 472 kts | 322° |
| 2026-05-05 07:43 | 53.52321 | 16.89145 | 35943 ft | 472 kts | 322° |
| 2026-05-05 07:43 | 53.57683 | 16.83244 | 35939 ft | 472 kts | 322° |
| 2026-05-05 07:44 | 53.63026 | 16.77348 | 35939 ft | 472 kts | 322° |
| 2026-05-05 07:44 | 53.67678 | 16.72198 | 35942 ft | 472 kts | 321° |
| 2026-05-05 07:45 | 53.72854 | 16.66452 | 35947 ft | 472 kts | 321° |
| 2026-05-05 07:45 | 53.77705 | 16.61050 | 35937 ft | 472 kts | 321° |
| 2026-05-05 07:46 | 53.81289 | 16.57050 | 35947 ft | 472 kts | 321° |
| 2026-05-05 07:46 | 53.84207 | 16.53786 | 35943 ft | 472 kts | 321° |
| 2026-05-05 07:47 | 53.86499 | 16.51218 | 35941 ft | 472 kts | 321° |
| 2026-05-05 07:47 | 53.88658 | 16.48794 | 35944 ft | 472 kts | 321° |
| 2026-05-05 07:48 | 53.90780 | 16.46409 | 35946 ft | 472 kts | 321° |
| 2026-05-05 07:48 | 53.94137 | 16.42634 | 35938 ft | 472 kts | 321° |
| 2026-05-05 07:49 | 53.96680 | 16.39772 | 35942 ft | 472 kts | 321° |
| 2026-05-05 07:49 | 54.00945 | 16.34959 | 35938 ft | 472 kts | 321° |
| 2026-05-05 07:50 | 54.03812 | 16.31719 | 35939 ft | 472 kts | 321° |
| 2026-05-05 07:50 | 54.05429 | 16.29888 | 35943 ft | 472 kts | 321° |
| 2026-05-05 07:51 | 54.07833 | 16.27160 | 35961 ft | 471 kts | 321° |
| 2026-05-05 07:51 | 54.09889 | 16.24822 | 35969 ft | 471 kts | 321° |
| 2026-05-05 07:52 | 54.11675 | 16.22789 | 35973 ft | 471 kts | 321° |
| 2026-05-05 07:52 | 54.14155 | 16.19960 | 35984 ft | 471 kts | 321° |
| 2026-05-05 07:53 | 54.17668 | 16.15955 | 35926 ft | 472 kts | 321° |
| 2026-05-05 07:53 | 54.21082 | 16.12058 | 35944 ft | 472 kts | 321° |
| 2026-05-05 07:54 | 54.24260 | 16.08426 | 35948 ft | 472 kts | 321° |
| 2026-05-05 07:54 | 54.25561 | 16.06937 | 35946 ft | 472 kts | 321° |
| 2026-05-05 07:55 | 54.28127 | 16.03994 | 35938 ft | 472 kts | 321° |
| 2026-05-05 07:55 | 54.30851 | 16.00863 | 35940 ft | 472 kts | 321° |
| 2026-05-05 07:56 | 54.34262 | 15.96936 | 35950 ft | 471 kts | 321° |
| 2026-05-05 07:56 | 54.39674 | 15.90691 | 35954 ft | 472 kts | 320° |
| 2026-05-05 07:57 | 54.45112 | 15.84393 | 35950 ft | 472 kts | 320° |
| 2026-05-05 07:57 | 54.50556 | 15.78068 | 35951 ft | 472 kts | 320° |
| 2026-05-05 07:58 | 54.55985 | 15.71738 | 35948 ft | 471 kts | 320° |
| 2026-05-05 07:58 | 54.61417 | 15.65385 | 35956 ft | 471 kts | 320° |
| 2026-05-05 07:59 | 54.66831 | 15.59032 | 35955 ft | 470 kts | 320° |
| 2026-05-05 07:59 | 54.72210 | 15.52698 | 35954 ft | 470 kts | 320° |
| 2026-05-05 08:00 | 54.77609 | 15.46320 | 35953 ft | 470 kts | 320° |
| 2026-05-05 08:00 | 54.83008 | 15.39921 | 35954 ft | 469 kts | 320° |
| 2026-05-05 08:01 | 54.87508 | 15.34572 | 35955 ft | 469 kts | 320° |
| 2026-05-05 08:01 | 54.92925 | 15.28233 | 35950 ft | 470 kts | 322° |
| 2026-05-05 08:02 | 54.98516 | 15.22380 | 35956 ft | 471 kts | 324° |
| 2026-05-05 08:02 | 55.04184 | 15.16601 | 35949 ft | 471 kts | 324° |
| 2026-05-05 08:03 | 55.09769 | 15.10849 | 35952 ft | 470 kts | 323° |
| 2026-05-05 08:03 | 55.15448 | 15.04935 | 35947 ft | 471 kts | 323° |
| 2026-05-05 08:04 | 55.21066 | 14.99049 | 35947 ft | 471 kts | 323° |
| 2026-05-05 08:04 | 55.26662 | 14.93165 | 35954 ft | 472 kts | 323° |
| 2026-05-05 08:05 | 55.32295 | 14.87224 | 35960 ft | 473 kts | 323° |
| 2026-05-05 08:05 | 55.37953 | 14.81238 | 35962 ft | 475 kts | 323° |
| 2026-05-05 08:06 | 55.43627 | 14.75216 | 35950 ft | 476 kts | 323° |
| 2026-05-05 08:06 | 55.49297 | 14.69177 | 35955 ft | 477 kts | 323° |
| 2026-05-05 08:07 | 55.54976 | 14.63109 | 35957 ft | 477 kts | 323° |
| 2026-05-05 08:07 | 55.60651 | 14.57024 | 35955 ft | 477 kts | 323° |
| 2026-05-05 08:08 | 55.66338 | 14.50906 | 35952 ft | 476 kts | 323° |
| 2026-05-05 08:08 | 55.71950 | 14.44847 | 35947 ft | 475 kts | 323° |
| 2026-05-05 08:09 | 55.77585 | 14.38743 | 35945 ft | 474 kts | 323° |
| 2026-05-05 08:09 | 55.83213 | 14.32624 | 35947 ft | 473 kts | 323° |
| 2026-05-05 08:10 | 55.88772 | 14.26560 | 35939 ft | 472 kts | 323° |
| 2026-05-05 08:10 | 55.94360 | 14.20443 | 35940 ft | 471 kts | 323° |
| 2026-05-05 08:11 | 55.99954 | 14.14298 | 35943 ft | 470 kts | 323° |
| 2026-05-05 08:11 | 56.04900 | 14.08848 | 35947 ft | 470 kts | 323° |
| 2026-05-05 08:12 | 56.09586 | 14.03667 | 35948 ft | 470 kts | 323° |
| 2026-05-05 08:12 | 56.15154 | 13.97495 | 35913 ft | 469 kts | 323° |
| 2026-05-05 08:13 | 56.17931 | 13.94410 | 35721 ft | 467 kts | 323° |
| 2026-05-05 08:13 | 56.20711 | 13.91314 | 35443 ft | 468 kts | 323° |
| 2026-05-05 08:13 | 56.23474 | 13.88231 | 35149 ft | 469 kts | 323° |
| 2026-05-05 08:13 | 56.26254 | 13.85123 | 34863 ft | 469 kts | 323° |
| 2026-05-05 08:14 | 56.29022 | 13.82025 | 34568 ft | 469 kts | 323° |
| 2026-05-05 08:14 | 56.31755 | 13.78961 | 34302 ft | 469 kts | 323° |
| 2026-05-05 08:14 | 56.34565 | 13.75805 | 34012 ft | 468 kts | 323° |
| 2026-05-05 08:14 | 56.37285 | 13.72746 | 33673 ft | 468 kts | 323° |
| 2026-05-05 08:15 | 56.40057 | 13.69622 | 33279 ft | 469 kts | 323° |
| 2026-05-05 08:15 | 56.42829 | 13.66492 | 32790 ft | 470 kts | 323° |
| 2026-05-05 08:15 | 56.45614 | 13.63339 | 31774 ft | 474 kts | 323° |
| 2026-05-05 08:15 | 56.48403 | 13.60179 | 30833 ft | 474 kts | 323° |
| 2026-05-05 08:16 | 56.51187 | 13.57022 | 30125 ft | 470 kts | 323° |
| 2026-05-05 08:16 | 56.53940 | 13.53896 | 29362 ft | 465 kts | 322° |
| 2026-05-05 08:16 | 56.56523 | 13.50957 | 28681 ft | 460 kts | 322° |
| 2026-05-05 08:16 | 56.59368 | 13.47714 | 27987 ft | 454 kts | 322° |
| 2026-05-05 08:17 | 56.62012 | 13.44692 | 27335 ft | 449 kts | 322° |
| 2026-05-05 08:17 | 56.64639 | 13.41683 | 26697 ft | 445 kts | 322° |
| 2026-05-05 08:17 | 56.67257 | 13.38679 | 26055 ft | 441 kts | 322° |
| 2026-05-05 08:17 | 56.69838 | 13.35714 | 25442 ft | 437 kts | 322° |
| 2026-05-05 08:18 | 56.72410 | 13.32755 | 24826 ft | 434 kts | 322° |
| 2026-05-05 08:18 | 56.74953 | 13.29890 | 24219 ft | 432 kts | 323° |
| 2026-05-05 08:18 | 56.77524 | 13.27144 | 23624 ft | 430 kts | 324° |
| 2026-05-05 08:18 | 56.80144 | 13.24398 | 22925 ft | 427 kts | 324° |
| 2026-05-05 08:19 | 56.82723 | 13.21698 | 22269 ft | 423 kts | 324° |
| 2026-05-05 08:19 | 56.85224 | 13.19064 | 21675 ft | 419 kts | 323° |
| 2026-05-05 08:19 | 56.87729 | 13.16406 | 21109 ft | 414 kts | 323° |
| 2026-05-05 08:19 | 56.90206 | 13.13762 | 20524 ft | 410 kts | 323° |
| 2026-05-05 08:20 | 56.92668 | 13.11124 | 19970 ft | 406 kts | 323° |
| 2026-05-05 08:20 | 56.95085 | 13.08527 | 19413 ft | 403 kts | 323° |
| 2026-05-05 08:20 | 56.97512 | 13.05915 | 18853 ft | 400 kts | 323° |
| 2026-05-05 08:20 | 56.99888 | 13.03352 | 18304 ft | 397 kts | 323° |
| 2026-05-05 08:21 | 57.02273 | 13.00776 | 17663 ft | 395 kts | 323° |
| 2026-05-05 08:21 | 57.04594 | 12.98269 | 17076 ft | 391 kts | 323° |
| 2026-05-05 08:21 | 57.06962 | 12.95708 | 16502 ft | 388 kts | 323° |
| 2026-05-05 08:21 | 57.09292 | 12.93232 | 15954 ft | 386 kts | 326° |
| 2026-05-05 08:22 | 57.11787 | 12.91490 | 15421 ft | 391 kts | 339° |
| 2026-05-05 08:22 | 57.14469 | 12.90342 | 14891 ft | 390 kts | 341° |
| 2026-05-05 08:22 | 57.17119 | 12.89264 | 14356 ft | 388 kts | 341° |
| 2026-05-05 08:22 | 57.19709 | 12.88179 | 13838 ft | 385 kts | 340° |
| 2026-05-05 08:23 | 57.22306 | 12.87046 | 13244 ft | 383 kts | 340° |
| 2026-05-05 08:23 | 57.24885 | 12.85887 | 12684 ft | 380 kts | 340° |
| 2026-05-05 08:23 | 57.27444 | 12.84721 | 12134 ft | 377 kts | 340° |
| 2026-05-05 08:23 | 57.29967 | 12.83563 | 11700 ft | 372 kts | 340° |
| 2026-05-05 08:24 | 57.32479 | 12.82406 | 11226 ft | 369 kts | 340° |
| 2026-05-05 08:24 | 57.34955 | 12.81265 | 10881 ft | 362 kts | 340° |
| 2026-05-05 08:24 | 57.37356 | 12.80161 | 10676 ft | 352 kts | 340° |
| 2026-05-05 08:24 | 57.39708 | 12.79083 | 10519 ft | 342 kts | 340° |
| 2026-05-05 08:25 | 57.41986 | 12.78030 | 10371 ft | 332 kts | 340° |
| 2026-05-05 08:25 | 57.44199 | 12.77004 | 10231 ft | 324 kts | 340° |
| 2026-05-05 08:25 | 57.46308 | 12.76028 | 10094 ft | 315 kts | 340° |
| 2026-05-05 08:25 | 57.48404 | 12.75056 | 9967 ft | 307 kts | 340° |
| 2026-05-05 08:26 | 57.50462 | 12.74093 | 9758 ft | 302 kts | 340° |
| 2026-05-05 08:26 | 57.52478 | 12.73154 | 9566 ft | 296 kts | 340° |
| 2026-05-05 08:26 | 57.54449 | 12.72235 | 9429 ft | 286 kts | 340° |
| 2026-05-05 08:26 | 57.56339 | 12.71358 | 9315 ft | 273 kts | 340° |
| 2026-05-05 08:27 | 57.58135 | 12.70525 | 9142 ft | 261 kts | 340° |
| 2026-05-05 08:27 | 57.59879 | 12.69710 | 8765 ft | 257 kts | 340° |
| 2026-05-05 08:27 | 57.61610 | 12.68896 | 8351 ft | 256 kts | 340° |
| 2026-05-05 08:27 | 57.63330 | 12.68087 | 7891 ft | 255 kts | 340° |
| 2026-05-05 08:28 | 57.65023 | 12.67249 | 7493 ft | 251 kts | 337° |
| 2026-05-05 08:28 | 57.66672 | 12.66153 | 7086 ft | 247 kts | 334° |
| 2026-05-05 08:28 | 57.68247 | 12.65044 | 6754 ft | 242 kts | 335° |
| 2026-05-05 08:28 | 57.69822 | 12.63944 | 6413 ft | 241 kts | 335° |
| 2026-05-05 08:29 | 57.71393 | 12.62855 | 6109 ft | 241 kts | 336° |
| 2026-05-05 08:29 | 57.72963 | 12.61775 | 5813 ft | 240 kts | 336° |
| 2026-05-05 08:29 | 57.74299 | 12.60849 | 5567 ft | 240 kts | 336° |
| 2026-05-05 08:30 | 57.77411 | 12.58722 | 5091 ft | 237 kts | 336° |
| 2026-05-05 08:30 | 57.78941 | 12.57645 | 4849 ft | 235 kts | 335° |
| 2026-05-05 08:30 | 57.80345 | 12.56134 | 4534 ft | 233 kts | 323° |
| 2026-05-05 08:30 | 57.81703 | 12.54456 | 4277 ft | 232 kts | 323° |
| 2026-05-05 08:31 | 57.82726 | 12.52255 | 4106 ft | 220 kts | 295° |
| 2026-05-05 08:31 | 57.83078 | 12.49605 | 4044 ft | 203 kts | 275° |
| 2026-05-05 08:31 | 57.82988 | 12.47017 | 3901 ft | 199 kts | 260° |
| 2026-05-05 08:31 | 57.82400 | 12.44637 | 3793 ft | 204 kts | 242° |
| 2026-05-05 08:32 | 57.81606 | 12.42414 | 3531 ft | 204 kts | 233° |
| 2026-05-05 08:32 | 57.80486 | 12.40836 | 3280 ft | 196 kts | 212° |
| 2026-05-05 08:32 | 57.79313 | 12.39768 | 3001 ft | 180 kts | 209° |
| 2026-05-05 08:32 | 57.78215 | 12.38804 | 2852 ft | 173 kts | 210° |
| 2026-05-05 08:33 | 57.77120 | 12.37836 | 2521 ft | 171 kts | 208° |
| 2026-05-05 08:33 | 57.76059 | 12.36885 | 2481 ft | 169 kts | 210° |
| 2026-05-05 08:33 | 57.75011 | 12.35924 | 2215 ft | 161 kts | 209° |
| 2026-05-05 08:33 | 57.74025 | 12.35037 | 1969 ft | 153 kts | 210° |
| 2026-05-05 08:34 | 57.73114 | 12.34194 | 1806 ft | 146 kts | 210° |
| 2026-05-05 08:34 | 57.72185 | 12.33342 | 1590 ft | 149 kts | 210° |
| 2026-05-05 08:34 | 57.71267 | 12.32525 | 1409 ft | 143 kts | 207° |
| 2026-05-05 08:34 | 57.70368 | 12.31731 | 1216 ft | 142 kts | 210° |
| 2026-05-05 08:35 | 57.69462 | 12.30882 | 1016 ft | 147 kts | 210° |
| 2026-05-05 08:35 | 57.68541 | 12.30026 | 824 ft | 150 kts | 208° |
| 2026-05-05 08:35 | 57.67602 | 12.29196 | 570 ft | 148 kts | 211° |
| 2026-05-05 08:35 | 57.66743 | 12.28392 | 518 ft | 123 kts | 205° |
| 2026-05-05 08:36 | 57.66141 | 12.27843 | 515 ft | 70 kts | 206° |
| 2026-05-05 08:36 | 57.65823 | 12.27668 | 519 ft | 37 kts | 177° |
| 2026-05-05 08:36 | 57.65735 | 12.27704 | 521 ft | 0 kts | 125° |
| 2026-05-05 08:39 | 57.65735 | 12.27705 | 521 ft | 1 kts | 124° |
| 2026-05-05 08:39 | 57.65725 | 12.27740 | 520 ft | 6 kts | 111° |
| 2026-05-05 08:39 | 57.65739 | 12.27832 | 518 ft | 9 kts | 35° |
| 2026-05-05 08:40 | 57.65808 | 12.27893 | 519 ft | 13 kts | 26° |
| 2026-05-05 08:40 | 57.65906 | 12.27982 | 515 ft | 19 kts | 26° |
| 2026-05-05 08:40 | 57.66043 | 12.28104 | 513 ft | 24 kts | 25° |
| 2026-05-05 08:40 | 57.66205 | 12.28251 | 514 ft | 26 kts | 26° |
| 2026-05-05 08:41 | 57.66370 | 12.28406 | 517 ft | 26 kts | 26° |
| 2026-05-05 08:41 | 57.66536 | 12.28557 | 514 ft | 27 kts | 26° |
| 2026-05-05 08:41 | 57.66702 | 12.28705 | 513 ft | 26 kts | 25° |
| 2026-05-05 08:41 | 57.66869 | 12.28850 | 517 ft | 26 kts | 28° |
| 2026-05-05 08:42 | 57.67020 | 12.28997 | 519 ft | 23 kts | 27° |
| 2026-05-05 08:42 | 57.67150 | 12.29113 | 518 ft | 21 kts | 23° |
| 2026-05-05 08:42 | 57.67257 | 12.29262 | 517 ft | 14 kts | 81° |
| 2026-05-05 08:42 | 57.67219 | 12.29455 | 515 ft | 18 kts | 112° |
| 2026-05-05 08:43 | 57.67226 | 12.29545 | 516 ft | 5 kts | 69° |
| 2026-05-05 08:43 | 57.67224 | 12.29620 | 520 ft | 7 kts | 108° |
| 2026-05-05 08:43 | 57.67214 | 12.29666 | 523 ft | 0 kts | 113° |